Time;durP1;ratioP1;P1;durP2;ratioP2;P2;SDS_P1;SDS_P2;PMS_P1;PMS_P2;Temp;Humidity;BMP_temperature;BMP_pressure;BME280_temperature;BME280_humidity;BME280_pressure;Samples;Min_cycle;Max_cycle;Signal;HPM_P1;HPM_P2
2021/08/06 00:01:22;;;;;;;0.52;0.38;;;17.50;78.20;;;;;;5055373;28;20035;-76
2021/08/06 00:03:48;;;;;;;1.15;0.45;;;17.50;78.20;;;;;;5053861;28;20495;-77
2021/08/06 00:06:14;;;;;;;0.85;0.30;;;17.50;78.10;;;;;;5055094;28;20094;-77
2021/08/06 00:08:39;;;;;;;0.75;0.40;;;17.60;78.00;;;;;;5055079;28;20029;-77
2021/08/06 00:11:05;;;;;;;0.75;0.40;;;17.40;78.20;;;;;;5055306;28;20017;-77
2021/08/06 00:13:31;;;;;;;0.70;0.40;;;17.50;78.10;;;;;;5055127;28;20084;-76
2021/08/06 00:15:57;;;;;;;0.90;0.40;;;17.50;78.00;;;;;;5072833;28;20414;-76
2021/08/06 00:18:24;;;;;;;0.40;0.30;;;17.50;78.00;;;;;;5068415;28;20032;-76
2021/08/06 00:20:51;;;;;;;0.70;0.40;;;17.50;77.80;;;;;;5078987;28;20543;-77
2021/08/06 00:23:16;;;;;;;0.60;0.50;;;17.50;77.80;;;;;;5079045;28;20112;-77
2021/08/06 00:25:42;;;;;;;0.73;0.40;;;17.50;77.80;;;;;;5074771;28;20150;-77
2021/08/06 00:28:10;;;;;;;0.38;0.28;;;17.50;77.90;;;;;;5057515;28;20094;-77
2021/08/06 00:30:36;;;;;;;0.50;0.40;;;17.50;78.10;;;;;;5063809;28;20021;-77
2021/08/06 00:33:01;;;;;;;0.70;0.47;;;17.30;78.70;;;;;;5074110;28;20079;-77
2021/08/06 00:35:27;;;;;;;0.40;0.30;;;17.40;78.80;;;;;;5068124;28;20449;-77
2021/08/06 00:37:53;;;;;;;0.40;0.30;;;17.30;79.00;;;;;;5077630;28;20020;-76
2021/08/06 00:40:22;;;;;;;0.43;0.30;;;17.30;79.30;;;;;;5078667;28;20571;-76
2021/08/06 00:42:47;;;;;;;0.55;0.30;;;17.20;79.70;;;;;;5075190;28;20048;-77
2021/08/06 00:45:13;;;;;;;0.40;0.30;;;17.20;79.50;;;;;;5058962;28;20067;-77
2021/08/06 00:47:39;;;;;;;0.50;0.30;;;17.30;79.50;;;;;;5058420;28;20074;-76
2021/08/06 00:50:06;;;;;;;0.80;0.40;;;17.30;79.50;;;;;;5074297;28;20021;-77
2021/08/06 00:52:32;;;;;;;0.50;0.30;;;17.40;78.90;;;;;;5085933;28;20020;-76
2021/08/06 00:54:58;;;;;;;0.70;0.47;;;17.30;78.80;;;;;;5084429;28;20114;-77
2021/08/06 00:57:23;;;;;;;0.40;0.30;;;17.30;79.10;;;;;;5077116;28;20028;-76
2021/08/06 00:59:49;;;;;;;1.13;0.30;;;17.30;79.20;;;;;;5068234;28;20483;-77
2021/08/06 01:02:20;;;;;;;0.73;0.40;;;17.40;79.00;;;;;;5056819;28;20131;-77
2021/08/06 01:04:57;;;;;;;0.57;0.30;;;17.30;79.00;;;;;;5058342;28;20025;-77
2021/08/06 01:07:29;;;;;;;0.50;0.30;;;17.30;78.90;;;;;;5058004;28;20017;-76
2021/08/06 01:09:59;;;;;;;0.50;0.40;;;17.30;79.30;;;;;;5057074;28;20025;-77
2021/08/06 01:12:36;;;;;;;0.52;0.30;;;17.10;79.90;;;;;;5058041;28;20400;-76
2021/08/06 01:15:03;;;;;;;0.52;0.30;;;17.00;80.00;;;;;;5058307;28;20044;-76
2021/08/06 01:17:33;;;;;;;0.35;0.20;;;17.00;79.60;;;;;;5056324;28;20142;-77
2021/08/06 01:20:06;;;;;;;0.52;0.40;;;17.20;79.50;;;;;;5058122;28;20029;-77
2021/08/06 01:22:54;;;;;;;0.73;0.30;;;17.10;79.40;;;;;;5057888;28;20025;-76
2021/08/06 01:25:44;;;;;;;0.55;0.38;;;17.10;79.00;;;;;;5057969;28;20106;-77
2021/08/06 01:28:11;;;;;;;;;;;17.10;79.10;;;;;;5057437;28;20029;-77
2021/08/06 01:30:37;;;;;;;0.40;0.25;;;17.20;78.90;;;;;;5057843;28;19947;-78
2021/08/06 01:33:02;;;;;;;0.65;0.30;;;17.20;78.90;;;;;;5070405;28;20090;-77
2021/08/06 01:35:28;;;;;;;0.38;0.20;;;17.10;78.90;;;;;;5076275;28;20032;-77
2021/08/06 01:37:53;;;;;;;0.38;0.30;;;17.10;78.80;;;;;;5077703;28;20564;-76
2021/08/06 01:40:20;;;;;;;0.70;0.30;;;17.20;79.00;;;;;;5076474;28;20021;-77
2021/08/06 01:43:00;;;;;;;0.32;0.20;;;17.20;78.60;;;;;;5059783;28;20056;-77
2021/08/06 01:45:33;;;;;;;0.30;0.20;;;17.10;79.10;;;;;;5066261;28;20092;-77
2021/08/06 01:47:59;;;;;;;0.30;0.20;;;17.10;78.90;;;;;;5057332;28;20017;-77
2021/08/06 01:50:34;;;;;;;0.40;0.30;;;16.90;79.40;;;;;;5056063;28;20025;-76
2021/08/06 01:53:02;;;;;;;0.43;0.30;;;16.80;80.10;;;;;;5057775;28;20033;-77
2021/08/06 01:55:40;;;;;;;0.40;0.30;;;16.90;79.90;;;;;;5057319;28;20028;-77
2021/08/06 01:58:07;;;;;;;0.55;0.38;;;16.90;79.90;;;;;;5057209;28;20491;-77
2021/08/06 02:00:36;;;;;;;0.30;0.20;;;16.80;80.30;;;;;;5057438;28;20490;-76
2021/08/06 02:03:04;;;;;;;0.50;0.30;;;16.80;80.20;;;;;;5056042;28;20027;-76
2021/08/06 02:05:30;;;;;;;0.60;0.30;;;16.80;80.10;;;;;;5060198;28;20542;-77
2021/08/06 02:07:56;;;;;;;0.50;0.30;;;16.80;80.60;;;;;;5075789;28;20467;-76
2021/08/06 02:10:24;;;;;;;0.63;0.30;;;16.80;80.70;;;;;;5076980;28;20052;-76
2021/08/06 02:12:49;;;;;;;0.35;0.30;;;16.80;80.80;;;;;;5067931;28;20025;-77
2021/08/06 02:15:15;;;;;;;0.45;0.28;;;16.80;81.10;;;;;;5057174;28;20029;-77
2021/08/06 02:17:43;;;;;;;0.55;0.30;;;16.80;81.00;;;;;;5055363;28;20032;-76
2021/08/06 02:20:10;;;;;;;0.88;0.50;;;16.80;81.20;;;;;;5061481;28;20095;-77
2021/08/06 02:22:36;;;;;;;0.60;0.35;;;16.80;81.20;;;;;;5055299;28;20503;-77
2021/08/06 02:25:06;;;;;;;0.43;0.38;;;16.80;81.30;;;;;;5056598;28;20435;-77
2021/08/06 02:27:34;;;;;;;0.73;0.40;;;16.80;80.90;;;;;;5056604;28;20022;-77
2021/08/06 02:30:02;;;;;;;0.52;0.35;;;16.80;81.10;;;;;;5056664;28;20100;-77
2021/08/06 02:32:28;;;;;;;0.77;0.40;;;16.80;81.30;;;;;;5055151;28;20097;-77
2021/08/06 02:34:58;;;;;;;0.50;0.30;;;16.80;81.10;;;;;;5056572;28;20025;-76
2021/08/06 02:37:24;;;;;;;0.63;0.35;;;16.70;81.60;;;;;;5074272;28;20032;-76
2021/08/06 02:39:50;;;;;;;0.50;0.35;;;16.60;81.70;;;;;;5076658;28;20054;-77
2021/08/06 02:42:16;;;;;;;0.43;0.30;;;16.80;81.50;;;;;;5076064;28;20056;-76
2021/08/06 02:44:42;;;;;;;0.30;0.22;;;16.80;81.10;;;;;;5055026;28;20859;-77
2021/08/06 02:47:09;;;;;;;0.88;0.32;;;16.90;80.70;;;;;;5054743;28;20057;-76
2021/08/06 02:49:36;;;;;;;0.40;0.30;;;16.90;81.00;;;;;;5056520;28;20040;-76
2021/08/06 02:52:07;;;;;;;0.50;0.30;;;16.80;81.00;;;;;;5070585;28;20029;-76
2021/08/06 02:54:34;;;;;;;1.35;0.45;;;16.80;81.10;;;;;;5056671;28;20470;-77
2021/08/06 02:57:00;;;;;;;0.93;0.30;;;16.80;80.80;;;;;;5056278;28;20104;-77
2021/08/06 02:59:25;;;;;;;0.45;0.30;;;16.80;80.80;;;;;;5062377;28;20118;-77
2021/08/06 03:01:51;;;;;;;0.47;0.30;;;16.80;80.90;;;;;;5055922;28;20020;-77
2021/08/06 03:04:17;;;;;;;0.52;0.22;;;16.90;80.70;;;;;;5071559;28;20029;-77
2021/08/06 03:06:43;;;;;;;0.50;0.32;;;16.90;80.80;;;;;;5069266;28;20040;-77
2021/08/06 03:09:09;;;;;;;0.30;0.20;;;16.90;80.40;;;;;;5069541;28;20029;-76
2021/08/06 03:11:34;;;;;;;0.43;0.32;;;16.80;80.60;;;;;;5056062;28;20048;-77
2021/08/06 03:14:00;;;;;;;0.70;0.40;;;16.90;80.70;;;;;;5067226;28;20037;-76
2021/08/06 03:16:26;;;;;;;0.50;0.30;;;17.00;80.50;;;;;;5054526;28;20028;-77
2021/08/06 03:18:52;;;;;;;0.20;0.20;;;16.90;80.90;;;;;;5054566;28;20123;-77
2021/08/06 03:21:17;;;;;;;0.32;0.30;;;16.80;81.10;;;;;;5060782;28;20025;-77
2021/08/06 03:23:43;;;;;;;0.50;0.30;;;16.90;80.90;;;;;;5074355;28;20780;-77
2021/08/06 03:26:12;;;;;;;0.20;0.20;;;16.80;81.40;;;;;;5075634;28;20435;-76
2021/08/06 03:28:37;;;;;;;0.70;0.30;;;16.80;81.70;;;;;;5075626;28;20040;-76
2021/08/06 03:31:03;;;;;;;0.30;0.20;;;16.80;81.50;;;;;;5063941;28;20028;-77
2021/08/06 03:33:29;;;;;;;1.48;0.35;;;16.80;81.50;;;;;;5055444;28;20112;-77
2021/08/06 03:35:54;;;;;;;0.50;0.30;;;16.90;81.30;;;;;;5055543;28;20036;-76
2021/08/06 03:38:24;;;;;;;0.20;0.20;;;16.90;81.30;;;;;;5055393;28;20025;-77
2021/08/06 03:40:50;;;;;;;0.50;0.30;;;17.00;81.20;;;;;;5063233;28;20044;-76
2021/08/06 03:43:17;;;;;;;0.60;0.30;;;16.90;81.20;;;;;;5075792;28;20084;-76
2021/08/06 03:45:43;;;;;;;0.80;0.40;;;16.90;81.10;;;;;;5075424;28;20363;-76
2021/08/06 03:48:08;;;;;;;0.45;0.30;;;16.90;81.60;;;;;;5058533;28;20044;-77
2021/08/06 03:50:35;;;;;;;0.47;0.30;;;16.80;81.80;;;;;;5055037;28;20463;-76
2021/08/06 03:53:02;;;;;;;0.57;0.40;;;16.80;82.10;;;;;;5053991;28;20040;-76
2021/08/06 03:55:28;;;;;;;0.82;0.40;;;16.90;81.80;;;;;;5055500;28;20025;-77
2021/08/06 03:57:56;;;;;;;0.75;0.32;;;16.90;81.90;;;;;;5055524;28;20021;-77
2021/08/06 04:00:24;;;;;;;0.52;0.22;;;16.90;81.80;;;;;;5053909;28;20021;-76
2021/08/06 04:02:50;;;;;;;0.55;0.32;;;16.80;82.10;;;;;;5055210;28;20033;-77
2021/08/06 04:05:17;;;;;;;0.15;0.15;;;16.80;82.00;;;;;;5053829;28;20388;-77
2021/08/06 04:07:46;;;;;;;0.45;0.30;;;16.80;82.20;;;;;;5055173;28;20060;-76
2021/08/06 04:10:14;;;;;;;0.50;0.38;;;16.80;82.20;;;;;;5055332;28;20392;-77
2021/08/06 04:12:40;;;;;;;0.93;0.20;;;16.90;82.00;;;;;;5053843;28;20029;-77
2021/08/06 04:15:07;;;;;;;0.32;0.30;;;16.90;81.90;;;;;;5053776;28;20024;-77
2021/08/06 04:17:38;;;;;;;0.30;0.30;;;16.80;82.20;;;;;;5053982;28;20052;-76
2021/08/06 04:20:04;;;;;;;0.43;0.30;;;16.80;82.30;;;;;;5053852;28;20032;-76
2021/08/06 04:22:30;;;;;;;0.45;0.30;;;16.70;82.80;;;;;;5055053;28;20029;-77
2021/08/06 04:24:56;;;;;;;0.43;0.30;;;16.80;82.70;;;;;;5054958;28;20510;-77
2021/08/06 04:27:21;;;;;;;0.40;0.30;;;16.90;82.40;;;;;;5054802;28;20048;-77
2021/08/06 04:29:47;;;;;;;0.40;0.30;;;16.80;82.60;;;;;;5055380;28;20032;-77
2021/08/06 04:32:13;;;;;;;0.40;0.30;;;16.90;81.90;;;;;;5054782;28;20040;-77
2021/08/06 04:34:39;;;;;;;0.40;0.22;;;17.00;82.10;;;;;;5053571;28;20021;-76
2021/08/06 04:37:04;;;;;;;0.55;0.30;;;16.90;81.90;;;;;;5055009;28;20442;-77
2021/08/06 04:39:30;;;;;;;1.13;0.35;;;16.90;81.90;;;;;;5055212;28;20029;-77
2021/08/06 04:41:55;;;;;;;0.43;0.30;;;17.00;81.50;;;;;;5071741;28;20143;-78
2021/08/06 04:44:21;;;;;;;0.52;0.30;;;17.00;81.30;;;;;;5070562;28;20032;-77
2021/08/06 04:46:47;;;;;;;0.60;0.30;;;17.10;81.20;;;;;;5053341;28;20033;-77
2021/08/06 04:49:13;;;;;;;0.30;0.28;;;17.00;81.10;;;;;;5068994;28;20055;-77
2021/08/06 04:51:39;;;;;;;0.47;0.30;;;17.00;81.30;;;;;;5070609;28;20040;-77
2021/08/06 04:54:05;;;;;;;0.30;0.25;;;17.10;81.10;;;;;;5054816;28;20029;-77
2021/08/06 04:56:34;;;;;;;0.38;0.30;;;17.10;81.00;;;;;;5054833;28;20044;-77
2021/08/06 04:59:00;;;;;;;0.28;0.20;;;17.20;80.80;;;;;;5054569;28;20106;-77
2021/08/06 05:01:26;;;;;;;0.32;0.20;;;17.20;80.90;;;;;;5054878;28;20037;-77
2021/08/06 05:03:52;;;;;;;0.57;0.30;;;17.20;80.90;;;;;;5058164;28;20060;-77
2021/08/06 05:06:18;;;;;;;0.43;0.30;;;17.20;81.00;;;;;;5058089;28;20519;-77
2021/08/06 05:08:48;;;;;;;0.68;0.40;;;17.20;81.00;;;;;;5056709;28;20016;-77
2021/08/06 05:11:14;;;;;;;;;;;17.20;81.20;;;;;;5058666;28;20025;-77
2021/08/06 05:13:39;;;;;;;0.70;0.35;;;17.20;81.00;;;;;;5058100;28;19954;-77
2021/08/06 05:16:05;;;;;;;0.38;0.30;;;17.20;81.20;;;;;;5057890;28;20025;-77
2021/08/06 05:18:31;;;;;;;0.47;0.30;;;17.20;81.20;;;;;;5057988;28;20036;-76
2021/08/06 05:20:56;;;;;;;0.65;0.40;;;17.10;81.30;;;;;;5057973;28;20033;-77
2021/08/06 05:23:22;;;;;;;0.60;0.40;;;17.20;81.30;;;;;;5057759;28;20040;-76
2021/08/06 05:25:48;;;;;;;0.30;0.20;;;17.20;80.90;;;;;;5057845;28;20033;-77
2021/08/06 05:28:13;;;;;;;0.95;0.45;;;17.30;80.90;;;;;;5057913;28;20100;-77
2021/08/06 05:30:39;;;;;;;0.73;0.40;;;17.30;80.80;;;;;;5057942;28;20025;-76
2021/08/06 05:33:05;;;;;;;1.60;0.50;;;17.30;80.70;;;;;;5057435;28;20051;-77
2021/08/06 05:35:30;;;;;;;0.38;0.30;;;17.30;80.90;;;;;;5073117;28;20112;-77
2021/08/06 05:37:56;;;;;;;0.57;0.35;;;17.20;81.20;;;;;;5057660;28;20021;-77
2021/08/06 05:40:22;;;;;;;0.57;0.30;;;17.30;81.50;;;;;;5057934;28;20021;-76
2021/08/06 05:42:48;;;;;;;0.60;0.30;;;17.20;82.10;;;;;;5057666;28;20044;-76
2021/08/06 05:45:13;;;;;;;0.50;0.32;;;17.20;82.20;;;;;;5057710;28;20348;-76
2021/08/06 05:47:51;;;;;;;0.40;0.30;;;17.20;82.40;;;;;;5072724;28;20028;-76
2021/08/06 05:50:19;;;;;;;0.80;0.55;;;17.10;82.40;;;;;;5057497;28;20029;-77
2021/08/06 05:52:45;;;;;;;0.60;0.35;;;17.20;82.20;;;;;;5055968;28;20438;-77
2021/08/06 05:55:12;;;;;;;0.47;0.30;;;17.00;82.60;;;;;;5057301;28;20031;-77
2021/08/06 05:57:37;;;;;;;0.73;0.40;;;17.10;82.80;;;;;;5072136;28;20029;-77
2021/08/06 06:00:06;;;;;;;0.52;0.40;;;17.20;82.20;;;;;;5077592;28;20187;-77
2021/08/06 06:02:32;;;;;;;0.40;0.30;;;17.30;81.60;;;;;;5057337;28;20025;-77
2021/08/06 06:04:58;;;;;;;0.60;0.40;;;17.30;81.50;;;;;;5057221;28;20087;-76
2021/08/06 06:07:24;;;;;;;0.45;0.32;;;17.40;81.20;;;;;;5073823;28;20921;-76
2021/08/06 06:09:49;;;;;;;0.75;0.50;;;17.30;81.20;;;;;;5070262;28;20159;-76
2021/08/06 06:12:15;;;;;;;0.68;0.30;;;17.30;81.10;;;;;;5055689;28;20198;-76
2021/08/06 06:14:41;;;;;;;0.60;0.40;;;17.40;80.70;;;;;;5071970;28;20491;-77
2021/08/06 06:17:07;;;;;;;0.70;0.40;;;17.40;81.10;;;;;;5074651;28;20033;-77
2021/08/06 06:19:33;;;;;;;0.52;0.30;;;17.40;80.60;;;;;;5075540;28;20024;-76
2021/08/06 06:21:58;;;;;;;0.65;0.30;;;17.50;80.50;;;;;;5075693;28;20033;-77
2021/08/06 06:24:24;;;;;;;1.23;0.40;;;17.40;80.50;;;;;;5066392;28;20439;-77
2021/08/06 06:26:50;;;;;;;0.40;0.20;;;17.50;80.80;;;;;;5055432;28;20028;-77
2021/08/06 06:29:15;;;;;;;0.68;0.35;;;17.50;80.60;;;;;;5055630;28;20029;-77
2021/08/06 06:31:41;;;;;;;0.95;0.40;;;17.50;80.60;;;;;;5056876;28;20099;-77
2021/08/06 06:34:07;;;;;;;0.57;0.40;;;17.70;80.20;;;;;;5059264;28;20040;-76
2021/08/06 06:36:33;;;;;;;0.80;0.40;;;17.70;80.10;;;;;;5076524;28;20027;-77
2021/08/06 06:38:59;;;;;;;0.50;0.40;;;17.70;79.90;;;;;;5070546;28;20044;-76
2021/08/06 06:41:24;;;;;;;0.40;0.30;;;17.70;79.70;;;;;;5067736;28;20025;-77
2021/08/06 06:43:50;;;;;;;0.60;0.35;;;17.70;79.80;;;;;;5073735;28;20039;-77
2021/08/06 06:46:16;;;;;;;0.50;0.38;;;17.60;80.00;;;;;;5056547;28;20055;-77
2021/08/06 06:48:41;;;;;;;0.52;0.40;;;17.60;79.90;;;;;;5056161;28;20538;-76
2021/08/06 06:51:07;;;;;;;0.70;0.43;;;17.70;79.60;;;;;;5056506;28;20021;-77
2021/08/06 06:53:33;;;;;;;0.60;0.30;;;17.80;79.10;;;;;;5066027;28;20402;-77
2021/08/06 06:55:58;;;;;;;0.57;0.30;;;17.90;79.10;;;;;;5076157;28;20056;-77
2021/08/06 06:58:24;;;;;;;0.57;0.40;;;17.90;78.60;;;;;;5076044;28;20202;-77
2021/08/06 07:00:50;;;;;;;0.65;0.38;;;18.00;78.70;;;;;;5074681;28;20020;-77
2021/08/06 07:03:16;;;;;;;0.60;0.40;;;18.00;78.00;;;;;;5073577;28;20036;-77
2021/08/06 07:05:41;;;;;;;0.80;0.60;;;17.90;78.30;;;;;;5074844;28;20024;-77
2021/08/06 07:08:07;;;;;;;0.50;0.30;;;17.90;78.20;;;;;;5075915;28;20025;-77
2021/08/06 07:10:33;;;;;;;0.55;0.38;;;18.00;78.70;;;;;;5057050;28;20057;-77
2021/08/06 07:12:58;;;;;;;0.70;0.30;;;18.20;77.80;;;;;;5071210;28;20029;-77
2021/08/06 07:15:25;;;;;;;0.50;0.30;;;18.10;78.10;;;;;;5055905;28;20032;-77
2021/08/06 07:17:50;;;;;;;0.70;0.40;;;18.30;78.10;;;;;;5055490;28;20029;-77
2021/08/06 07:20:18;;;;;;;0.68;0.30;;;18.30;77.60;;;;;;5056086;28;20034;-77
2021/08/06 07:22:44;;;;;;;0.70;0.40;;;18.30;77.60;;;;;;5055710;28;20035;-77
2021/08/06 07:25:12;;;;;;;0.52;0.30;;;18.20;77.40;;;;;;5054904;28;20056;-77
2021/08/06 07:27:39;;;;;;;0.73;0.40;;;18.20;77.60;;;;;;5071216;28;20033;-77
2021/08/06 07:30:06;;;;;;;0.57;0.30;;;18.40;77.30;;;;;;5059619;28;20028;-77
2021/08/06 07:32:33;;;;;;;0.68;0.35;;;18.50;76.80;;;;;;5069068;28;20029;-77
2021/08/06 07:34:58;;;;;;;0.63;0.30;;;18.50;76.70;;;;;;5055523;28;20027;-76
2021/08/06 07:37:26;;;;;;;0.28;0.25;;;18.50;76.50;;;;;;5055614;28;20033;-77
2021/08/06 07:39:52;;;;;;;0.35;0.30;;;18.50;75.90;;;;;;5064584;28;20032;-77
2021/08/06 07:42:18;;;;;;;0.32;0.20;;;18.60;76.00;;;;;;5073921;28;20074;-77
2021/08/06 07:44:44;;;;;;;0.50;0.30;;;18.80;75.10;;;;;;5075680;28;20031;-78
2021/08/06 07:47:10;;;;;;;0.35;0.20;;;18.90;75.20;;;;;;5074279;28;20035;-77
2021/08/06 07:49:35;;;;;;;0.32;0.20;;;19.10;74.60;;;;;;5055608;28;20543;-77
2021/08/06 07:52:01;;;;;;;0.30;0.20;;;18.90;74.80;;;;;;5055412;28;20029;-77
2021/08/06 07:54:27;;;;;;;0.57;0.20;;;19.10;74.30;;;;;;5065288;28;20107;-77
2021/08/06 07:56:52;;;;;;;0.35;0.20;;;19.80;71.80;;;;;;5074065;28;20028;-77
2021/08/06 07:59:19;;;;;;;0.43;0.25;;;20.30;70.70;;;;;;5058595;28;20107;-77
2021/08/06 08:01:46;;;;;;;0.40;0.20;;;20.50;70.20;;;;;;5054073;28;20037;-77
2021/08/06 08:04:11;;;;;;;0.15;0.10;;;20.60;69.70;;;;;;5058505;28;20036;-77
2021/08/06 08:06:37;;;;;;;0.20;0.10;;;20.20;69.80;;;;;;5054092;28;20037;-77
2021/08/06 08:09:03;;;;;;;0.30;0.20;;;19.80;70.30;;;;;;5066109;28;20048;-77
2021/08/06 08:11:28;;;;;;;0.35;0.20;;;19.80;71.30;;;;;;5074373;28;20028;-77
2021/08/06 08:13:54;;;;;;;0.70;0.32;;;19.70;72.50;;;;;;5054288;28;20838;-77
2021/08/06 08:16:20;;;;;;;0.60;0.20;;;19.90;71.90;;;;;;5064165;28;20032;-77
2021/08/06 08:18:46;;;;;;;0.55;0.30;;;19.70;72.00;;;;;;5073651;28;20115;-77
2021/08/06 08:21:12;;;;;;;0.25;0.20;;;20.00;71.40;;;;;;5071949;28;20039;-77
2021/08/06 08:23:38;;;;;;;0.17;0.13;;;20.20;70.10;;;;;;5053756;28;20047;-77
2021/08/06 08:26:03;;;;;;;0.43;0.20;;;20.30;69.60;;;;;;5055207;28;20094;-77
2021/08/06 08:28:29;;;;;;;0.40;0.30;;;20.20;70.20;;;;;;5055039;28;20022;-77
2021/08/06 08:30:55;;;;;;;0.45;0.20;;;20.20;70.10;;;;;;5053675;28;20040;-77
2021/08/06 08:33:21;;;;;;;0.50;0.30;;;20.30;69.40;;;;;;5073062;28;20047;-77
2021/08/06 08:35:47;;;;;;;0.50;0.20;;;20.40;69.10;;;;;;5075384;28;20028;-77
2021/08/06 08:38:13;;;;;;;0.20;0.17;;;20.30;69.00;;;;;;5072083;28;20120;-77
2021/08/06 08:40:40;;;;;;;0.43;0.20;;;20.20;70.00;;;;;;5065038;28;20075;-77
2021/08/06 08:43:07;;;;;;;0.28;0.20;;;19.80;70.10;;;;;;5078651;28;20123;-76
2021/08/06 08:45:35;;;;;;;0.32;0.20;;;19.60;70.70;;;;;;5077505;28;20032;-77
2021/08/06 08:48:01;;;;;;;0.20;0.20;;;19.40;71.20;;;;;;5076761;28;20032;-77
2021/08/06 08:50:27;;;;;;;0.28;0.10;;;19.30;71.70;;;;;;5079002;28;20021;-76
2021/08/06 08:52:53;;;;;;;0.28;0.20;;;19.30;72.00;;;;;;5058956;28;20029;-77
2021/08/06 08:55:19;;;;;;;0.30;0.20;;;19.30;72.10;;;;;;5058478;28;20036;-77
2021/08/06 08:57:45;;;;;;;0.32;0.20;;;19.50;71.90;;;;;;5073808;28;20380;-77
2021/08/06 09:00:13;;;;;;;0.38;0.22;;;19.60;72.20;;;;;;5064530;28;20036;-77
2021/08/06 09:02:40;;;;;;;0.30;0.20;;;19.70;71.40;;;;;;5078252;28;20016;-77
2021/08/06 09:05:21;;;;;;;0.20;0.10;;;19.70;71.40;;;;;;5078329;28;20444;-77
2021/08/06 09:07:49;;;;;;;0.32;0.20;;;19.80;71.50;;;;;;5076166;28;20052;-77
2021/08/06 09:10:26;;;;;;;0.40;0.20;;;20.00;70.40;;;;;;5058424;28;20332;-77
2021/08/06 09:12:56;;;;;;;0.32;0.20;;;20.30;69.90;;;;;;5056987;28;20029;-77
2021/08/06 09:15:52;;;;;;;0.30;0.20;;;20.50;69.20;;;;;;5057073;28;20071;-77
2021/08/06 09:18:26;;;;;;;0.20;0.20;;;20.30;68.70;;;;;;5064382;28;20442;-77
2021/08/06 09:21:07;;;;;;;0.20;0.17;;;20.30;69.50;;;;;;5076941;28;20047;-77
2021/08/06 09:23:40;;;;;;;0.28;0.20;;;20.20;69.70;;;;;;5063413;28;20398;-77
2021/08/06 09:26:09;;;;;;;0.43;0.22;;;20.10;70.60;;;;;;5056668;28;20041;-77
2021/08/06 09:28:57;;;;;;;0.40;0.25;;;20.20;71.10;;;;;;5057929;28;20048;-77
2021/08/06 09:31:23;;;;;;;0.40;0.20;;;20.50;69.00;;;;;;5057659;28;20029;-77
2021/08/06 09:33:48;;;;;;;0.20;0.10;;;20.80;69.30;;;;;;5057900;28;20037;-77
2021/08/06 09:36:18;;;;;;;0.10;0.10;;;20.80;69.50;;;;;;5056689;28;20025;-77
2021/08/06 09:38:43;;;;;;;0.20;0.10;;;20.80;68.00;;;;;;5056382;28;20033;-77
2021/08/06 09:41:39;;;;;;;0.20;0.10;;;20.40;67.90;;;;;;5067881;28;20036;-77
2021/08/06 09:44:15;;;;;;;0.40;0.20;;;20.20;68.40;;;;;;5076178;28;20040;-77
2021/08/06 09:46:41;;;;;;;0.30;0.20;;;20.10;70.80;;;;;;5076047;28;20032;-77
2021/08/06 09:49:07;;;;;;;0.38;0.22;;;20.20;71.50;;;;;;5075619;28;20032;-77
2021/08/06 09:51:37;;;;;;;0.30;0.20;;;20.40;70.80;;;;;;5076081;28;20028;-77
2021/08/06 09:54:16;;;;;;;;;;;20.60;68.90;;;;;;5076771;28;20029;-77
2021/08/06 09:56:42;;;;;;;0.30;0.20;;;21.30;69.10;;;;;;5060514;28;19962;-77
2021/08/06 09:59:08;;;;;;;0.32;0.20;;;21.70;66.70;;;;;;5057335;28;20434;-77
2021/08/06 10:01:33;;;;;;;0.40;0.28;;;21.70;64.10;;;;;;5056082;28;20567;-77
2021/08/06 10:04:17;;;;;;;0.50;0.40;;;23.00;60.50;;;;;;5066366;28;20116;-77
2021/08/06 10:06:57;;;;;;;0.20;0.10;;;24.40;58.00;;;;;;5057103;28;20032;-77
2021/08/06 10:09:22;;;;;;;0.22;0.10;;;24.80;52.70;;;;;;5057059;28;20017;-77
2021/08/06 10:11:48;;;;;;;0.20;0.10;;;24.30;54.10;;;;;;5057089;28;20067;-77
2021/08/06 10:14:15;;;;;;;0.00;0.00;;;23.70;55.00;;;;;;5056948;28;20079;-77
2021/08/06 10:16:40;;;;;;;0.00;0.00;;;22.90;56.60;;;;;;5057235;28;20025;-77
2021/08/06 10:19:07;;;;;;;0.15;0.10;;;22.70;58.00;;;;;;5055551;28;20101;-77
2021/08/06 10:21:33;;;;;;;0.20;0.10;;;22.20;59.80;;;;;;5055739;28;20167;-77
2021/08/06 10:24:00;;;;;;;0.25;0.10;;;21.90;60.90;;;;;;5058802;28;20056;-77
2021/08/06 10:26:26;;;;;;;0.22;0.10;;;21.50;61.70;;;;;;5075285;28;20036;-77
2021/08/06 10:28:51;;;;;;;0.13;0.08;;;21.30;62.70;;;;;;5059573;28;20017;-77
2021/08/06 10:31:24;;;;;;;0.15;0.10;;;21.10;63.70;;;;;;5056974;28;20032;-77
2021/08/06 10:34:02;;;;;;;0.20;0.10;;;21.30;63.10;;;;;;5066519;28;20017;-77
2021/08/06 10:36:47;;;;;;;0.13;0.10;;;21.30;62.60;;;;;;5076742;28;20032;-77
2021/08/06 10:39:38;;;;;;;0.20;0.10;;;21.30;61.90;;;;;;5076506;28;20044;-77
2021/08/06 10:42:04;;;;;;;0.10;0.10;;;21.50;59.30;;;;;;5058283;28;20049;-77
2021/08/06 10:44:56;;;;;;;0.20;0.13;;;21.50;57.90;;;;;;5056494;28;20021;-77
2021/08/06 10:47:22;;;;;;;0.10;0.10;;;21.90;57.40;;;;;;5056276;28;20033;-77
2021/08/06 10:50:13;;;;;;;0.10;0.10;;;22.70;56.50;;;;;;5056458;28;20032;-77
2021/08/06 10:52:39;;;;;;;0.10;0.10;;;22.80;55.00;;;;;;5070319;28;20033;-77
2021/08/06 10:55:16;;;;;;;0.10;0.10;;;23.10;54.50;;;;;;5056490;28;20021;-77
2021/08/06 10:57:42;;;;;;;0.00;0.00;;;23.40;54.20;;;;;;5060218;28;20111;-77
2021/08/06 11:00:08;;;;;;;0.10;0.10;;;23.60;52.90;;;;;;5075370;28;20117;-77
2021/08/06 11:02:33;;;;;;;0.10;0.10;;;23.50;52.80;;;;;;5075941;28;20056;-77
2021/08/06 11:05:00;;;;;;;0.10;0.10;;;23.60;53.40;;;;;;5058222;28;20111;-77
2021/08/06 11:07:33;;;;;;;0.00;0.00;;;23.60;54.60;;;;;;5056067;28;20021;-77
2021/08/06 11:09:59;;;;;;;0.10;0.10;;;24.00;54.30;;;;;;5055819;28;20029;-77
2021/08/06 11:12:33;;;;;;;0.00;0.00;;;24.20;53.80;;;;;;5056026;28;20025;-77
2021/08/06 11:15:07;;;;;;;0.00;0.00;;;24.30;51.80;;;;;;5056031;28;20032;-77
2021/08/06 11:17:35;;;;;;;0.10;0.10;;;24.30;53.10;;;;;;5055622;28;20061;-77
2021/08/06 11:20:07;;;;;;;0.10;0.10;;;23.80;52.40;;;;;;5055899;28;20032;-77
2021/08/06 11:22:40;;;;;;;0.10;0.10;;;23.90;52.00;;;;;;5055682;28;20033;-77
2021/08/06 11:25:28;;;;;;;0.00;0.00;;;24.10;53.40;;;;;;5055908;28;20389;-77
2021/08/06 11:28:01;;;;;;;0.10;0.10;;;23.90;51.80;;;;;;5055371;28;20053;-77
2021/08/06 11:30:36;;;;;;;0.10;0.10;;;23.80;52.10;;;;;;5055676;28;20432;-77
2021/08/06 11:33:02;;;;;;;0.00;0.00;;;23.90;52.30;;;;;;5055591;28;20028;-77
2021/08/06 11:35:34;;;;;;;0.28;0.10;;;23.80;51.40;;;;;;5055615;28;20489;-77
2021/08/06 11:38:03;;;;;;;0.15;0.10;;;23.60;53.00;;;;;;5055327;28;20032;-77
2021/08/06 11:40:39;;;;;;;0.00;0.00;;;23.50;51.00;;;;;;5060467;28;20109;-77
2021/08/06 11:43:25;;;;;;;0.00;0.00;;;23.40;52.40;;;;;;5075389;28;20679;-77
2021/08/06 11:46:09;;;;;;;0.30;0.10;;;23.30;52.40;;;;;;5059386;28;20036;-77
2021/08/06 11:48:52;;;;;;;0.22;0.10;;;23.30;53.60;;;;;;5055279;28;20021;-77
2021/08/06 11:51:18;;;;;;;0.08;0.08;;;23.50;53.10;;;;;;5055470;28;20024;-77
2021/08/06 11:53:45;;;;;;;0.10;0.10;;;23.70;52.30;;;;;;5055466;28;20025;-77
2021/08/06 11:56:18;;;;;;;0.10;0.10;;;24.00;52.20;;;;;;5072602;28;20577;-77
2021/08/06 11:58:44;;;;;;;0.20;0.10;;;24.10;50.30;;;;;;5075426;28;20114;-77
2021/08/06 12:01:17;;;;;;;0.05;0.00;;;24.00;50.00;;;;;;5064943;28;20064;-77
2021/08/06 12:03:45;;;;;;;0.10;0.10;;;24.10;52.60;;;;;;5054087;28;20410;-77
2021/08/06 12:06:11;;;;;;;0.10;0.10;;;24.20;52.00;;;;;;5055104;28;20110;-77
2021/08/06 12:08:37;;;;;;;0.05;0.05;;;23.90;50.20;;;;;;5053981;28;20115;-77
2021/08/06 12:11:06;;;;;;;0.10;0.10;;;24.00;50.70;;;;;;5056096;28;20029;-77
2021/08/06 12:13:49;;;;;;;0.28;0.10;;;23.80;51.10;;;;;;5059393;28;20032;-77
2021/08/06 12:16:35;;;;;;;0.10;0.10;;;23.70;51.00;;;;;;5059251;28;20021;-77
2021/08/06 12:19:02;;;;;;;0.10;0.10;;;24.20;52.30;;;;;;5059037;28;20126;-77
2021/08/06 12:21:38;;;;;;;0.10;0.10;;;24.20;49.70;;;;;;5059240;28;20025;-77
2021/08/06 12:24:13;;;;;;;0.10;0.10;;;24.40;48.50;;;;;;5058929;28;20084;-77
2021/08/06 12:26:42;;;;;;;0.20;0.10;;;24.60;48.30;;;;;;5059024;28;20028;-77
2021/08/06 12:29:20;;;;;;;0.20;0.10;;;24.60;50.00;;;;;;5059140;28;20021;-77
2021/08/06 12:32:00;;;;;;;0.00;0.00;;;24.40;48.50;;;;;;5059088;28;20056;-77
2021/08/06 12:34:27;;;;;;;0.10;0.10;;;24.10;50.20;;;;;;5058777;28;20400;-77
2021/08/06 12:37:05;;;;;;;0.10;0.10;;;24.00;48.70;;;;;;5060605;28;20140;-77
2021/08/06 12:39:33;;;;;;;0.15;0.10;;;23.90;49.90;;;;;;5077573;28;20035;-77
2021/08/06 12:42:15;;;;;;;0.10;0.10;;;23.80;48.80;;;;;;5077259;28;20072;-77
2021/08/06 12:44:56;;;;;;;0.10;0.10;;;23.70;48.80;;;;;;5076614;28;20029;-77
2021/08/06 12:47:22;;;;;;;0.00;0.00;;;23.70;49.70;;;;;;5078626;28;20657;-77
2021/08/06 12:49:54;;;;;;;0.10;0.10;;;23.70;46.50;;;;;;5077376;28;20485;-77
2021/08/06 12:52:25;;;;;;;0.20;0.10;;;23.90;48.10;;;;;;5063578;28;20399;-77
2021/08/06 12:55:07;;;;;;;0.10;0.10;;;23.90;48.60;;;;;;5065011;28;20028;-77